Time;durP1;ratioP1;P1;durP2;ratioP2;P2;SDS_P1;SDS_P2;PMS_P1;PMS_P2;Temp;Humidity;BMP_temperature;BMP_pressure;BME280_temperature;BME280_humidity;BME280_pressure;Samples;Min_cycle;Max_cycle;Signal;HPM_P1;HPM_P2
2023/09/02 00:02:19;;;;;;;5.20;3.60;;;;;;;18.42;100.00;100282.11;177868;1259;46046;-85
2023/09/02 00:06:22;;;;;;;3.50;3.20;;;;;;;18.37;100.00;100280.30;177806;1260;57888;-85
2023/09/02 00:10:26;;;;;;;3.40;3.10;;;;;;;18.30;100.00;100282.36;177711;1259;49464;-85
2023/09/02 00:14:29;;;;;;;3.70;3.30;;;;;;;18.31;100.00;100279.59;177893;1260;46086;-85
2023/09/02 00:18:32;;;;;;;6.60;3.90;;;;;;;18.34;100.00;100281.02;177978;1262;46115;-85
2023/09/02 00:22:36;;;;;;;3.00;2.60;;;;;;;18.30;100.00;100280.38;177666;1258;45850;-85
2023/09/02 00:26:39;;;;;;;4.00;3.50;;;;;;;18.33;100.00;100273.55;177777;1261;58216;-85
2023/09/02 00:30:42;;;;;;;6.50;3.30;;;;;;;18.41;100.00;100271.63;177655;1263;44071;-85
2023/09/02 00:34:48;;;;;;;4.60;3.50;;;;;;;18.47;100.00;100282.38;177475;1259;46190;-83
2023/09/02 00:38:52;;;;;;;8.70;4.00;;;;;;;18.57;100.00;100282.48;177719;1260;46128;-84
2023/09/02 00:42:57;;;;;;;3.60;2.90;;;;;;;18.60;100.00;100279.67;177687;1258;46156;-85
2023/09/02 00:47:04;;;;;;;3.10;2.80;;;;;;;18.61;100.00;100286.04;177343;1260;58766;-86
2023/09/02 00:51:09;;;;;;;2.90;2.40;;;;;;;18.64;100.00;100288.33;177959;1262;46156;-85
2023/09/02 00:55:12;;;;;;;2.50;2.30;;;;;;;18.60;100.00;100294.18;178041;1262;46042;-86
2023/09/02 00:59:16;;;;;;;3.10;2.20;;;;;;;18.62;100.00;100294.02;177766;1260;46117;-87
2023/09/02 01:03:19;;;;;;;3.80;2.80;;;;;;;18.68;100.00;100300.13;177737;1263;46116;-86
2023/09/02 01:07:25;;;;;;;4.50;2.20;;;;;;;18.72;100.00;100299.10;177576;1261;59529;-87
2023/09/02 01:11:28;;;;;;;3.30;2.60;;;;;;;18.74;100.00;100301.04;177234;1261;46098;-87
2023/09/02 01:15:32;;;;;;;8.60;2.50;;;;;;;18.76;100.00;100300.75;177586;1263;46112;-86
2023/09/02 01:19:36;;;;;;;4.40;3.30;;;;;;;18.74;100.00;100296.42;177835;1260;46063;-86
2023/09/02 01:23:54;;;;;;;3.80;3.00;;;;;;;18.62;100.00;100292.35;177403;1260;46016;-87
2023/09/02 01:28:07;;;;;;;2.60;2.30;;;;;;;18.54;100.00;100299.67;177871;1261;57938;-86
2023/09/02 01:32:13;;;;;;;3.90;2.90;;;;;;;18.52;100.00;100302.09;177754;1262;46121;-86
2023/09/02 01:36:17;;;;;;;7.20;3.40;;;;;;;18.54;100.00;100302.08;177611;1257;45993;-86
2023/09/02 01:40:25;;;;;;;5.50;2.90;;;;;;;18.52;100.00;100309.29;177923;1258;45975;-87
2023/09/02 01:44:30;;;;;;;5.70;2.50;;;;;;;18.49;100.00;100311.77;177613;1262;44792;-87
2023/09/02 01:48:35;;;;;;;2.40;2.10;;;;;;;18.47;100.00;100313.99;177814;1257;58207;-85
2023/09/02 01:52:39;;;;;;;4.20;2.90;;;;;;;18.52;100.00;100318.27;177560;1260;46101;-86
2023/09/02 01:56:42;;;;;;;4.00;3.10;;;;;;;18.59;100.00;100315.21;178242;1262;46050;-86
2023/09/02 02:00:45;;;;;;;4.80;2.80;;;;;;;18.62;100.00;100314.11;177879;1261;46013;-86
2023/09/02 02:04:55;;;;;;;3.80;3.00;;;;;;;18.64;100.00;100312.28;177774;1261;46058;-87
2023/09/02 02:09:06;;;;;;;5.10;4.00;;;;;;;18.63;100.00;100320.84;177567;1263;59260;-86
2023/09/02 02:13:09;;;;;;;5.00;3.40;;;;;;;18.50;100.00;100332.87;177497;1261;46140;-86
2023/09/02 02:17:13;;;;;;;4.90;4.00;;;;;;;18.35;100.00;100335.67;177607;1259;46112;-87
2023/09/02 02:21:17;;;;;;;5.40;4.20;;;;;;;18.29;100.00;100343.89;177811;1262;46444;-87
2023/09/02 02:25:21;;;;;;;5.00;4.00;;;;;;;18.33;100.00;100342.48;177928;1260;46051;-88
2023/09/02 02:29:24;;;;;;;4.40;3.20;;;;;;;18.35;100.00;100340.98;177728;1260;57341;-86
2023/09/02 02:33:27;;;;;;;5.60;3.40;;;;;;;18.35;100.00;100341.23;177609;1257;46004;-87
2023/09/02 02:37:30;;;;;;;7.90;4.80;;;;;;;18.35;100.00;100339.03;177771;1258;46207;-87
2023/09/02 02:41:33;;;;;;;6.90;4.70;;;;;;;18.37;100.00;100346.57;177520;1257;46002;-87
2023/09/02 02:45:37;;;;;;;5.90;3.90;;;;;;;18.41;100.00;100346.61;177948;1258;46140;-87
2023/09/02 02:49:40;;;;;;;5.30;4.00;;;;;;;18.39;100.00;100351.20;177345;1260;59433;-86
2023/09/02 02:53:43;;;;;;;7.10;5.00;;;;;;;18.34;100.00;100356.54;177556;1263;46153;-87
2023/09/02 02:57:47;;;;;;;7.00;4.80;;;;;;;18.28;100.00;100362.80;177539;1260;46055;-87
2023/09/02 03:01:51;;;;;;;9.70;5.70;;;;;;;18.24;100.00;100364.48;177806;1258;46109;-87
2023/09/02 03:05:54;;;;;;;4.40;4.00;;;;;;;18.22;100.00;100370.90;177755;1257;46134;-86
2023/09/02 03:09:57;;;;;;;4.60;3.40;;;;;;;18.23;100.00;100373.66;177923;1258;59568;-87
2023/09/02 03:14:01;;;;;;;5.80;4.60;;;;;;;18.22;100.00;100375.91;178145;1258;46111;-87
2023/09/02 03:18:04;;;;;;;6.50;4.70;;;;;;;18.23;100.00;100376.72;178840;1258;45941;-87
2023/09/02 03:22:07;;;;;;;5.80;4.70;;;;;;;18.27;100.00;100378.17;177693;1258;46182;-86
2023/09/02 03:26:12;;;;;;;8.80;5.20;;;;;;;18.33;100.00;100377.55;177541;1259;46185;-87
2023/09/02 03:30:15;;;;;;;6.20;4.60;;;;;;;18.31;100.00;100379.21;177551;1262;58258;-86
2023/09/02 03:34:18;;;;;;;6.40;5.80;;;;;;;18.29;100.00;100376.02;177747;1260;46028;-87
2023/09/02 03:38:21;;;;;;;7.20;5.10;;;;;;;18.34;100.00;100381.55;177440;1260;46111;-86
2023/09/02 03:42:24;;;;;;;6.00;4.40;;;;;;;18.38;100.00;100384.63;177678;1262;46235;-86
2023/09/02 03:46:28;;;;;;;12.20;5.60;;;;;;;18.35;100.00;100387.20;177981;1260;46142;-86
2023/09/02 03:51:03;;;;;;;8.60;6.40;;;;;;;18.32;100.00;100392.90;177615;1260;59600;-86
2023/09/02 03:55:07;;;;;;;6.90;5.50;;;;;;;18.26;100.00;100391.74;177607;1260;46251;-86
2023/09/02 03:59:10;;;;;;;5.20;3.70;;;;;;;18.18;100.00;100390.83;177815;1259;44420;-87
2023/09/02 04:03:15;;;;;;;5.70;4.70;;;;;;;18.04;100.00;100394.53;177719;1257;46127;-87
2023/09/02 04:07:19;;;;;;;;;;;;;;;18.00;100.00;100400.38;177964;1257;46056;-86
2023/09/02 04:11:23;;;;;;;7.50;4.70;;;;;;;17.97;100.00;100403.55;178044;1259;59715;-87
2023/09/02 04:15:26;;;;;;;5.40;4.20;;;;;;;17.95;100.00;100408.42;177933;1260;46053;-86
2023/09/02 04:19:29;;;;;;;6.20;5.00;;;;;;;17.93;100.00;100409.78;177577;1257;46115;-87
2023/09/02 04:23:32;;;;;;;7.70;5.20;;;;;;;17.90;100.00;100416.50;177688;1259;46034;-87
2023/09/02 04:27:35;;;;;;;5.80;4.70;;;;;;;17.86;100.00;100419.27;177678;1260;46031;-86
2023/09/02 04:31:38;;;;;;;7.60;4.80;;;;;;;17.82;100.00;100423.72;177596;1259;58031;-86
2023/09/02 04:35:43;;;;;;;8.00;4.80;;;;;;;17.81;100.00;100428.99;177336;1260;46143;-86
2023/09/02 04:39:47;;;;;;;8.60;5.40;;;;;;;17.82;100.00;100434.25;177742;1259;46077;-86
2023/09/02 04:43:50;;;;;;;6.20;4.30;;;;;;;17.82;100.00;100438.04;177640;1260;46187;-86
2023/09/02 04:47:53;;;;;;;6.90;4.90;;;;;;;17.81;100.00;100442.59;177597;1260;46031;-86
2023/09/02 04:51:57;;;;;;;5.50;3.90;;;;;;;17.78;100.00;100442.59;178010;1260;58699;-86
2023/09/02 04:56:03;;;;;;;5.60;4.60;;;;;;;17.81;100.00;100443.89;177623;1260;46047;-86
2023/09/02 05:00:07;;;;;;;8.00;4.60;;;;;;;18.21;100.00;100451.21;177571;1261;46672;-86
2023/09/02 05:04:10;;;;;;;5.40;3.20;;;;;;;18.79;100.00;100452.77;177662;1260;46108;-87
2023/09/02 05:08:13;;;;;;;3.40;2.70;;;;;;;18.90;100.00;100451.21;177778;1262;46011;-88
2023/09/02 05:12:17;;;;;;;6.30;3.10;;;;;;;19.39;100.00;100455.67;178484;1258;57929;-87
2023/09/02 05:16:20;;;;;;;4.80;3.20;;;;;;;20.12;100.00;100450.73;177719;1260;46224;-88
2023/09/02 05:20:23;;;;;;;5.70;3.50;;;;;;;20.90;100.00;100453.58;178059;1260;46108;-87
2023/09/02 05:24:26;;;;;;;4.00;3.60;;;;;;;21.62;100.00;100452.11;178114;1259;46068;-88
2023/09/02 05:28:29;;;;;;;4.80;3.90;;;;;;;22.23;100.00;100456.32;178288;1260;46221;-87
2023/09/02 05:32:32;;;;;;;6.10;3.00;;;;;;;22.74;100.00;100461.30;178068;1259;59183;-88
2023/09/02 05:36:36;;;;;;;3.70;3.20;;;;;;;23.17;100.00;100469.96;178155;1260;46019;-89
2023/09/02 05:40:42;;;;;;;3.90;3.10;;;;;;;23.47;96.66;100472.77;178328;1259;46169;-89
2023/09/02 05:44:45;;;;;;;6.30;4.00;;;;;;;23.58;94.43;100475.95;178374;1260;46094;-88
2023/09/02 05:48:48;;;;;;;4.90;4.40;;;;;;;23.13;95.12;100480.85;178230;1261;46235;-88
2023/09/02 05:52:51;;;;;;;7.30;6.30;;;;;;;22.56;99.01;100485.56;178509;1259;57320;-87
2023/09/02 05:56:54;;;;;;;5.90;5.40;;;;;;;22.34;100.00;100484.09;178117;1260;46039;-86
2023/09/02 06:01:03;;;;;;;7.70;5.70;;;;;;;22.37;100.00;100485.56;178283;1260;46209;-86
2023/09/02 06:05:07;;;;;;;6.70;5.00;;;;;;;22.54;100.00;100483.77;178580;1259;46169;-87
2023/09/02 06:09:10;;;;;;;7.20;5.10;;;;;;;22.68;100.00;100490.14;178290;1259;44141;-87
2023/09/02 06:13:13;;;;;;;5.50;4.80;;;;;;;22.64;100.00;100492.34;178123;1259;59258;-87
2023/09/02 06:17:16;;;;;;;10.00;6.20;;;;;;;22.62;100.00;100498.67;178776;1263;46048;-87
2023/09/02 06:21:19;;;;;;;4.80;4.30;;;;;;;22.69;100.00;100499.38;178449;1260;46085;-87
2023/09/02 06:25:22;;;;;;;4.60;4.20;;;;;;;22.64;100.00;100501.42;178375;1260;46003;-87
2023/09/02 06:29:25;;;;;;;4.40;4.00;;;;;;;22.41;100.00;100501.86;178640;1259;46108;-87
2023/09/02 06:33:28;;;;;;;6.40;4.70;;;;;;;22.35;100.00;100499.10;178585;1261;59293;-87
2023/09/02 06:37:32;;;;;;;4.70;4.20;;;;;;;22.57;100.00;100503.43;178244;1260;45121;-86
2023/09/02 06:41:35;;;;;;;4.50;3.70;;;;;;;22.71;100.00;100502.17;178400;1260;46095;-88
2023/09/02 06:45:38;;;;;;;3.90;3.40;;;;;;;22.93;99.99;100505.15;178325;1260;46006;-86
2023/09/02 06:49:41;;;;;;;6.80;5.00;;;;;;;23.06;100.00;100508.20;178341;1259;46166;-87
2023/09/02 06:53:44;;;;;;;4.00;3.60;;;;;;;23.29;100.00;100508.89;178384;1260;58274;-88
2023/09/02 06:57:48;;;;;;;4.10;3.70;;;;;;;23.47;98.94;100513.86;178492;1259;46206;-88
2023/09/02 07:01:52;;;;;;;4.10;3.70;;;;;;;23.50;98.17;100518.34;178350;1259;46079;-88
2023/09/02 07:06:06;;;;;;;3.90;3.60;;;;;;;23.34;98.27;100521.51;178547;1257;46178;-88
2023/09/02 07:10:10;;;;;;;3.40;3.10;;;;;;;23.24;97.78;100524.09;178368;1259;46063;-88
2023/09/02 07:14:13;;;;;;;8.60;3.80;;;;;;;23.24;99.64;100525.65;178201;1258;59067;-88
2023/09/02 07:18:16;;;;;;;4.10;3.60;;;;;;;23.29;99.35;100529.74;178238;1259;46032;-86
2023/09/02 07:22:20;;;;;;;2.90;2.40;;;;;;;23.04;99.93;100528.34;178371;1260;46349;-88
2023/09/02 07:26:27;;;;;;;3.50;2.60;;;;;;;23.04;99.90;100533.90;179023;1258;46099;-88
2023/09/02 07:30:30;;;;;;;3.30;2.70;;;;;;;22.92;99.96;100539.10;178132;1259;45996;-87
2023/09/02 07:34:37;;;;;;;2.80;2.60;;;;;;;22.74;100.00;100535.14;178884;1257;57938;-86
2023/09/02 07:38:41;;;;;;;2.40;2.20;;;;;;;22.25;100.00;100539.48;178283;1258;43973;-86
2023/09/02 07:42:44;;;;;;;3.40;3.00;;;;;;;22.13;100.00;100543.63;178745;1258;46008;-87
2023/09/02 07:46:48;;;;;;;3.40;2.90;;;;;;;22.21;100.00;100546.36;178693;1258;44735;-86
2023/09/02 07:50:51;;;;;;;2.40;1.90;;;;;;;21.96;100.00;100553.79;178654;1259;52524;-84
2023/09/02 07:54:54;;;;;;;1.80;1.20;;;;;;;21.56;100.00;100557.45;177650;1262;57923;-85
2023/09/02 07:58:57;;;;;;;4.60;2.20;;;;;;;21.21;100.00;100561.09;178160;1258;46029;-85
2023/09/02 08:03:01;;;;;;;2.70;2.50;;;;;;;20.93;100.00;100567.55;178113;1259;46216;-85
2023/09/02 08:07:04;;;;;;;2.60;2.40;;;;;;;20.94;100.00;100572.42;178690;1258;46005;-84
2023/09/02 08:11:07;;;;;;;2.70;2.20;;;;;;;21.38;100.00;100573.64;178640;1259;44345;-86
2023/09/02 08:15:10;;;;;;;2.20;2.00;;;;;;;21.64;100.00;100578.74;178406;1257;59025;-85
2023/09/02 08:19:14;;;;;;;1.90;1.70;;;;;;;21.77;100.00;100578.93;178228;1260;46163;-87
2023/09/02 08:23:19;;;;;;;2.30;1.80;;;;;;;21.88;100.00;100575.98;178731;1258;46135;-87
2023/09/02 08:27:24;;;;;;;2.20;2.00;;;;;;;22.05;100.00;100582.98;178728;1258;46031;-87
2023/09/02 08:31:27;;;;;;;2.90;2.40;;;;;;;21.96;98.76;100585.99;178397;1259;45955;-88
2023/09/02 08:35:37;;;;;;;3.00;2.80;;;;;;;21.88;100.00;100594.74;178782;1258;59569;-88
2023/09/02 08:39:40;;;;;;;1.90;1.70;;;;;;;21.73;100.00;100603.55;178383;1258;44102;-87
2023/09/02 08:43:43;;;;;;;3.10;2.60;;;;;;;21.46;100.00;100601.84;178180;1258;44089;-87
2023/09/02 08:47:54;;;;;;;2.50;2.30;;;;;;;21.37;100.00;100605.15;178568;1259;46098;-88
2023/09/02 08:51:57;;;;;;;3.20;1.60;;;;;;;21.49;99.81;100603.13;178380;1258;47499;-87
2023/09/02 08:56:01;;;;;;;1.40;1.30;;;;;;;21.67;100.00;100608.80;178478;1258;58227;-86
2023/09/02 09:00:06;;;;;;;2.70;2.50;;;;;;;21.92;99.42;100614.40;178543;1257;46142;-87
2023/09/02 09:04:14;;;;;;;3.30;3.00;;;;;;;22.08;99.63;100620.15;178664;1260;43993;-87
2023/09/02 09:08:19;;;;;;;2.60;2.40;;;;;;;22.25;99.91;100621.17;178578;1259;44346;-88
2023/09/02 09:12:24;;;;;;;2.00;1.80;;;;;;;22.44;100.00;100623.25;178420;1260;46130;-87
2023/09/02 09:16:33;;;;;;;2.70;1.90;;;;;;;22.53;99.06;100622.50;179131;1258;58252;-86
2023/09/02 09:20:37;;;;;;;2.50;2.30;;;;;;;22.46;94.60;100621.19;179325;1258;46040;-86
2023/09/02 09:24:40;;;;;;;3.30;2.60;;;;;;;22.41;97.79;100625.80;178509;1257;44720;-86
2023/09/02 09:28:51;;;;;;;3.70;1.90;;;;;;;22.32;97.93;100626.38;178820;1258;46149;-86
2023/09/02 09:33:00;;;;;;;1.50;1.10;;;;;;;22.11;95.07;100633.39;178520;1259;46449;-87
2023/09/02 09:37:04;;;;;;;2.00;1.40;;;;;;;22.01;92.45;100634.99;179129;1259;59596;-87
2023/09/02 09:41:09;;;;;;;2.10;1.60;;;;;;;22.16;98.59;100639.14;178632;1260;274300;-85
2023/09/02 09:45:12;;;;;;;3.20;1.80;;;;;;;22.39;95.54;100638.67;179112;1258;45990;-86
2023/09/02 09:49:21;;;;;;;3.60;2.00;;;;;;;22.56;93.22;100643.59;179449;1258;44034;-85
2023/09/02 09:53:31;;;;;;;2.80;2.40;;;;;;;22.66;94.04;100646.04;179322;1259;46069;-86
2023/09/02 09:57:37;;;;;;;2.60;2.40;;;;;;;22.81;91.86;100650.73;178928;1258;59551;-86
2023/09/02 10:01:46;;;;;;;2.40;2.20;;;;;;;22.89;92.40;100653.42;179214;1259;46147;-87
2023/09/02 10:05:58;;;;;;;2.10;1.90;;;;;;;22.86;93.83;100654.90;179451;1259;45962;-85
2023/09/02 10:10:04;;;;;;;3.20;2.60;;;;;;;22.97;91.46;100654.59;179155;1258;44636;-86
2023/09/02 10:14:08;;;;;;;;;;;;;;;23.02;91.56;100653.70;178989;1259;46104;-85
2023/09/02 10:18:12;;;;;;;3.60;3.00;;;;;;;23.05;93.04;100656.80;179555;1259;59437;-86
2023/09/02 10:22:20;;;;;;;3.20;2.60;;;;;;;23.05;95.62;100662.49;178937;1258;45956;-85
2023/09/02 10:26:32;;;;;;;4.20;2.90;;;;;;;23.12;93.57;100662.79;178957;1259;46059;-86
2023/09/02 10:30:42;;;;;;;5.10;4.60;;;;;;;23.24;91.36;100665.73;179133;1262;44597;-86
2023/09/02 10:35:08;;;;;;;3.40;3.10;;;;;;;23.30;88.20;100666.66;179477;1259;46044;-87
2023/09/02 10:39:22;;;;;;;7.60;3.40;;;;;;;23.23;87.68;100671.04;179499;1259;59568;-85
2023/09/02 10:43:25;;;;;;;4.50;4.10;;;;;;;23.25;89.50;100672.98;178290;1259;46025;-86
2023/09/02 10:47:29;;;;;;;2.40;2.20;;;;;;;23.11;89.27;100672.01;178855;1258;45918;-86
2023/09/02 10:51:32;;;;;;;5.10;3.70;;;;;;;23.16;84.52;100673.44;178949;1259;46118;-85
2023/09/02 10:55:59;;;;;;;3.70;3.10;;;;;;;23.22;83.20;100674.86;179353;1257;46055;-85
2023/09/02 11:00:25;;;;;;;5.50;3.50;;;;;;;23.39;84.33;100681.32;179699;1259;57604;-87
2023/09/02 11:04:59;;;;;;;3.00;2.70;;;;;;;23.44;89.21;100685.18;179961;1257;46082;-86
2023/09/02 11:09:03;;;;;;;4.10;3.70;;;;;;;23.40;84.40;100682.91;179762;1258;44262;-85
2023/09/02 11:13:06;;;;;;;6.50;3.70;;;;;;;23.31;84.99;100684.74;179065;1259;46457;-85
2023/09/02 11:17:29;;;;;;;4.00;3.50;;;;;;;23.44;87.08;100691.73;179038;1259;45872;-85
2023/09/02 11:21:46;;;;;;;4.40;3.80;;;;;;;23.64;87.65;100690.63;178943;1259;59702;-85
2023/09/02 11:26:04;;;;;;;4.40;4.00;;;;;;;23.89;88.42;100692.55;179216;1257;46030;-86
2023/09/02 11:30:11;;;;;;;5.20;4.70;;;;;;;24.05;88.27;100695.41;179134;1258;44741;-87
2023/09/02 11:34:16;;;;;;;3.20;2.90;;;;;;;24.19;91.33;100694.29;179366;1257;43971;-86
2023/09/02 11:38:19;;;;;;;4.50;4.00;;;;;;;24.13;85.81;100701.76;179153;1258;44685;-87
2023/09/02 11:42:22;;;;;;;3.60;3.30;;;;;;;24.21;86.95;100703.05;178531;1260;58673;-86
2023/09/02 11:46:25;;;;;;;4.70;3.60;;;;;;;24.10;83.79;100698.14;179215;1259;45402;-86
2023/09/02 11:50:29;;;;;;;5.60;3.50;;;;;;;24.29;84.32;100695.68;179257;1259;45920;-87
2023/09/02 11:54:37;;;;;;;4.50;4.10;;;;;;;24.29;85.28;100694.29;178821;1259;45948;-88
2023/09/02 11:58:40;;;;;;;4.20;3.80;;;;;;;24.37;87.17;100694.42;179187;1257;46006;-88
2023/09/02 12:02:44;;;;;;;4.40;4.00;;;;;;;24.47;85.24;100689.59;178605;1258;59251;-87
2023/09/02 12:06:50;;;;;;;4.40;3.60;;;;;;;24.54;82.74;100690.01;178697;1258;44503;-87
2023/09/02 12:10:53;;;;;;;3.40;3.00;;;;;;;24.62;82.15;100684.61;178495;1258;46230;-88
2023/09/02 12:14:57;;;;;;;5.80;4.20;;;;;;;24.68;81.14;100677.20;178613;1262;46068;-88
2023/09/02 12:19:00;;;;;;;3.70;3.30;;;;;;;24.67;81.47;100681.43;178408;1258;46001;-89
2023/09/02 12:23:05;;;;;;;4.00;3.60;;;;;;;24.70;79.72;100681.67;178430;1263;59225;-89
2023/09/02 12:27:16;;;;;;;3.90;3.40;;;;;;;24.56;75.59;100685.65;178584;1259;46010;-88
2023/09/02 12:31:20;;;;;;;2.70;2.50;;;;;;;24.46;77.07;100681.80;178445;1259;46093;-87
2023/09/02 12:35:25;;;;;;;3.20;2.80;;;;;;;24.47;79.81;100679.30;178470;1259;46441;-89
2023/09/02 12:39:28;;;;;;;2.80;2.60;;;;;;;24.50;76.52;100674.64;178675;1259;46128;-86
2023/09/02 12:43:31;;;;;;;2.90;2.70;;;;;;;24.66;76.76;100676.91;178328;1259;59559;-87
2023/09/02 12:47:37;;;;;;;2.80;2.50;;;;;;;24.83;77.74;100677.46;178593;1259;45956;-87
2023/09/02 12:51:41;;;;;;;3.50;3.20;;;;;;;25.03;75.38;100677.69;179197;1260;45775;-88
2023/09/02 12:55:45;;;;;;;3.90;3.50;;;;;;;25.02;76.76;100678.52;178614;1259;46034;-88
2023/09/02 13:00:27;;;;;;;4.10;3.00;;;;;;;25.04;77.68;100682.96;179465;1259;46053;-90
2023/09/02 13:08:58;;;;;;;2.60;2.40;;;;;;;24.98;78.07;100681.97;179522;1263;46023;-90
2023/09/02 13:17:20;;;;;;;3.40;2.60;;;;;;;25.12;75.41;100674.11;180404;1254;43873;-89
2023/09/02 13:21:30;;;;;;;2.40;2.00;;;;;;;25.32;75.46;100676.60;179205;1261;44407;-90
2023/09/02 13:25:34;;;;;;;1.50;1.40;;;;;;;25.53;74.82;100677.56;179566;1261;57301;-90
2023/09/02 13:29:53;;;;;;;2.30;2.10;;;;;;;25.46;71.24;100675.40;180217;1260;44227;-90
2023/09/02 13:34:00;;;;;;;2.70;2.20;;;;;;;25.16;72.36;100681.59;179253;1259;45949;-87
2023/09/02 13:38:04;;;;;;;2.50;2.20;;;;;;;25.09;73.68;100679.17;178933;1264;46218;-86
2023/09/02 13:42:17;;;;;;;2.00;1.60;;;;;;;25.07;72.16;100675.71;178204;1259;45987;-87
2023/09/02 13:46:20;;;;;;;2.60;2.40;;;;;;;25.25;73.34;100671.11;178652;1259;59328;-86
2023/09/02 13:50:24;;;;;;;1.80;1.60;;;;;;;25.38;72.69;100664.35;179992;1259;43821;-87
2023/09/02 13:54:28;;;;;;;2.20;2.00;;;;;;;25.53;72.60;100664.28;178503;1259;46100;-86
2023/09/02 13:58:36;;;;;;;2.40;1.90;;;;;;;25.70;72.24;100665.16;178197;1259;46008;-86
2023/09/02 14:02:41;;;;;;;3.00;2.60;;;;;;;25.79;72.03;100659.80;178638;1259;45927;-86
2023/09/02 14:06:44;;;;;;;2.00;1.80;;;;;;;25.59;70.98;100660.89;178869;1259;56975;-86
2023/09/02 14:10:49;;;;;;;2.30;1.50;;;;;;;25.51;69.92;100663.07;178228;1260;45966;-86
2023/09/02 14:14:52;;;;;;;2.00;1.80;;;;;;;25.46;70.42;100664.34;178662;1262;46292;-87
2023/09/02 14:18:56;;;;;;;2.00;1.70;;;;;;;25.44;69.17;100664.21;178750;1260;46020;-89
2023/09/02 14:23:01;;;;;;;2.50;2.30;;;;;;;25.26;70.13;100665.61;179047;1259;45962;-89
2023/09/02 14:27:17;;;;;;;2.40;1.90;;;;;;;25.27;73.64;100669.54;179286;1261;59624;-90
2023/09/02 14:31:41;;;;;;;1.90;1.70;;;;;;;25.11;71.25;100674.27;179558;1259;45861;-89
2023/09/02 14:35:45;;;;;;;4.80;2.20;;;;;;;24.96;70.77;100675.81;179231;1261;46340;-89
2023/09/02 14:39:48;;;;;;;1.80;1.60;;;;;;;24.85;71.08;100670.94;179120;1259;46029;-89
2023/09/02 14:43:52;;;;;;;2.00;1.80;;;;;;;24.71;69.99;100671.17;179035;1259;46043;-90
2023/09/02 14:47:57;;;;;;;1.30;1.20;;;;;;;24.62;70.89;100672.89;180025;1259;58512;-87
2023/09/02 14:52:01;;;;;;;3.30;3.00;;;;;;;24.49;72.04;100678.95;178448;1259;46207;-86
2023/09/02 14:56:04;;;;;;;3.20;2.40;;;;;;;24.44;74.68;100676.36;178007;1260;46161;-87
2023/09/02 15:00:11;;;;;;;12.70;7.60;;;;;;;24.28;75.64;100678.56;178399;1261;46107;-87
2023/09/02 15:04:17;;;;;;;3.30;2.50;;;;;;;24.14;76.95;100675.59;178142;1259;44670;-88
2023/09/02 15:08:20;;;;;;;4.20;3.70;;;;;;;23.91;78.71;100679.98;178228;1259;59004;-87
2023/09/02 15:12:24;;;;;;;3.50;2.90;;;;;;;23.74;84.45;100680.41;177924;1262;46004;-87
2023/09/02 15:16:27;;;;;;;4.70;4.30;;;;;;;23.72;86.40;100685.42;178012;1259;46085;-86
2023/09/02 15:20:31;;;;;;;4.20;3.80;;;;;;;23.73;87.68;100685.77;178083;1259;45978;-86
2023/09/02 15:24:35;;;;;;;5.70;4.00;;;;;;;23.78;89.24;100689.50;178377;1259;46078;-87
2023/09/02 15:28:38;;;;;;;4.10;3.70;;;;;;;23.83;90.35;100694.79;179073;1263;58510;-86
2023/09/02 15:32:42;;;;;;;4.70;4.20;;;;;;;23.88;90.32;100702.70;178803;1259;46042;-88
2023/09/02 15:36:46;;;;;;;4.50;4.00;;;;;;;23.90;90.57;100706.73;179185;1259;44365;-87
2023/09/02 15:40:50;;;;;;;7.10;4.40;;;;;;;23.89;90.92;100706.00;180187;1259;44375;-88
2023/09/02 15:44:53;;;;;;;4.10;3.60;;;;;;;23.86;90.02;100706.99;178652;1259;46527;-87
2023/09/02 15:49:00;;;;;;;4.30;3.80;;;;;;;23.81;92.51;100707.83;178655;1259;59307;-86
2023/09/02 15:53:03;;;;;;;4.00;3.60;;;;;;;23.80;92.23;100703.18;178992;1259;44771;-85
2023/09/02 15:57:09;;;;;;;4.60;4.20;;;;;;;23.77;92.05;100709.51;179666;1259;45858;-84
2023/09/02 16:01:12;;;;;;;6.90;4.10;;;;;;;23.74;92.18;100711.05;179489;1263;44119;-84
2023/09/02 16:05:16;;;;;;;6.50;5.40;;;;;;;23.68;91.80;100716.08;179469;1259;46110;-84
2023/09/02 16:09:19;;;;;;;7.30;5.40;;;;;;;23.62;92.02;100716.02;180111;1264;59533;-83
2023/09/02 16:13:23;;;;;;;8.40;4.80;;;;;;;23.58;93.79;100715.66;178495;1260;46084;-83
2023/09/02 16:17:30;;;;;;;4.60;4.20;;;;;;;23.52;94.92;100714.09;180669;1259;44120;-84
2023/09/02 16:21:33;;;;;;;5.70;5.20;;;;;;;23.50;95.57;100715.96;180608;1259;43755;-84
2023/09/02 16:25:36;;;;;;;7.50;5.20;;;;;;;23.50;94.45;100719.92;180578;1260;45942;-84
2023/09/02 16:29:40;;;;;;;4.90;4.40;;;;;;;23.48;94.21;100717.48;180820;1260;58220;-83
2023/09/02 16:33:44;;;;;;;4.60;4.10;;;;;;;23.43;95.07;100724.23;179621;1259;46440;-84
2023/09/02 16:37:47;;;;;;;4.50;4.10;;;;;;;23.37;95.90;100732.09;178779;1259;44108;-83
2023/09/02 16:41:51;;;;;;;7.20;5.10;;;;;;;23.32;97.51;100733.85;177619;1259;46088;-84
2023/09/02 16:45:55;;;;;;;4.70;4.30;;;;;;;23.28;98.07;100734.71;178441;1259;45997;-83
2023/09/02 16:50:00;;;;;;;4.80;4.20;;;;;;;23.25;98.66;100736.47;178266;1259;59247;-83
2023/09/02 16:54:03;;;;;;;5.50;4.50;;;;;;;23.22;99.06;100736.56;177756;1260;46115;-83
2023/09/02 16:58:07;;;;;;;4.90;4.00;;;;;;;23.21;99.39;100735.22;178825;1260;46498;-83
2023/09/02 17:02:19;;;;;;;5.30;4.70;;;;;;;23.20;98.88;100738.39;178549;1259;43916;-84
2023/09/02 17:06:32;;;;;;;4.60;4.10;;;;;;;23.13;97.70;100737.25;179107;1259;46025;-83
2023/09/02 17:10:35;;;;;;;4.60;4.20;;;;;;;23.07;96.71;100734.83;178477;1259;59649;-83
2023/09/02 17:14:39;;;;;;;6.50;4.70;;;;;;;23.04;97.76;100730.73;177403;1260;46110;-83
2023/09/02 17:18:43;;;;;;;5.60;4.30;;;;;;;22.97;98.70;100729.88;177647;1260;46168;-83
2023/09/02 17:22:46;;;;;;;7.20;5.10;;;;;;;22.89;98.56;100728.02;178258;1259;46101;-83
2023/09/02 17:26:49;;;;;;;9.00;5.40;;;;;;;22.80;98.51;100725.40;177807;1263;46213;-83
2023/09/02 17:31:02;;;;;;;4.90;4.30;;;;;;;22.69;98.52;100732.36;177925;1263;58458;-84
2023/09/02 17:35:06;;;;;;;5.20;4.60;;;;;;;22.57;98.58;100731.22;177657;1263;46007;-83
2023/09/02 17:39:09;;;;;;;5.60;5.00;;;;;;;22.45;98.73;100739.89;177604;1259;46040;-83
2023/09/02 17:43:13;;;;;;;7.50;5.70;;;;;;;22.31;99.01;100743.16;178669;1259;46106;-84
2023/09/02 17:47:16;;;;;;;6.80;4.30;;;;;;;22.20;98.51;100747.46;178455;1263;46191;-84
2023/09/02 17:51:19;;;;;;;7.10;6.10;;;;;;;22.07;99.40;100748.70;177693;1260;58027;-83
2023/09/02 17:55:23;;;;;;;6.20;5.60;;;;;;;21.92;100.00;100751.98;178210;1259;46023;-84
2023/09/02 17:59:27;;;;;;;7.10;6.30;;;;;;;21.78;100.00;100756.55;177978;1260;44076;-83
2023/09/02 18:03:30;;;;;;;5.50;5.00;;;;;;;21.67;100.00;100757.20;178551;1259;45958;-84
2023/09/02 18:07:37;;;;;;;7.30;6.00;;;;;;;21.54;100.00;100759.65;177849;1260;45990;-84
2023/09/02 18:11:40;;;;;;;6.00;5.40;;;;;;;21.42;100.00;100761.83;177385;1260;59616;-84
2023/09/02 18:15:44;;;;;;;9.70;6.60;;;;;;;21.32;100.00;100765.17;177866;1260;46044;-84
2023/09/02 18:19:47;;;;;;;8.60;7.30;;;;;;;21.24;100.00;100775.70;178043;1259;45999;-84
2023/09/02 18:23:50;;;;;;;6.90;6.20;;;;;;;21.13;100.00;100780.20;177935;1259;45961;-84
2023/09/02 18:27:56;;;;;;;7.00;6.30;;;;;;;21.03;100.00;100784.29;178002;1260;45992;-83
2023/09/02 18:32:00;;;;;;;7.40;6.80;;;;;;;20.94;100.00;100791.83;177783;1263;59248;-84
2023/09/02 18:36:03;;;;;;;6.80;6.10;;;;;;;20.87;100.00;100789.52;178137;1260;46037;-84
2023/09/02 18:40:06;;;;;;;6.40;5.80;;;;;;;20.79;100.00;100797.00;178543;1262;43975;-84
2023/09/02 18:44:10;;;;;;;8.10;7.30;;;;;;;20.69;100.00;100804.77;177987;1260;46064;-84
2023/09/02 18:48:13;;;;;;;6.70;6.00;;;;;;;20.62;100.00;100808.16;177805;1265;45978;-84
2023/09/02 18:52:17;;;;;;;8.50;5.90;;;;;;;20.50;100.00;100806.58;177895;1263;58991;-83